sensor_id;sensor_type;location;lat;lon;timestamp;P1;durP1;ratioP1;P2;durP2;ratioP2
77701;SDS011;66868;42.708;23.404;2023-04-25T00:02:24;5.25;;;4.10;;
77701;SDS011;66868;42.708;23.404;2023-04-25T00:04:49;6.88;;;4.13;;
77701;SDS011;66868;42.708;23.404;2023-04-25T00:07:15;4.25;;;3.95;;
77701;SDS011;66868;42.708;23.404;2023-04-25T00:09:41;5.03;;;4.72;;
77701;SDS011;66868;42.708;23.404;2023-04-25T00:12:06;3.67;;;3.42;;
77701;SDS011;66868;42.708;23.404;2023-04-25T00:14:32;3.78;;;3.55;;
77701;SDS011;66868;42.708;23.404;2023-04-25T00:16:59;3.70;;;3.50;;
77701;SDS011;66868;42.708;23.404;2023-04-25T00:19:25;3.83;;;3.53;;
77701;SDS011;66868;42.708;23.404;2023-04-25T00:21:53;4.15;;;3.10;;
77701;SDS011;66868;42.708;23.404;2023-04-25T00:24:19;2.63;;;2.42;;
77701;SDS011;66868;42.708;23.404;2023-04-25T00:26:44;4.53;;;2.58;;
77701;SDS011;66868;42.708;23.404;2023-04-25T00:29:10;3.20;;;2.63;;
77701;SDS011;66868;42.708;23.404;2023-04-25T00:31:36;2.15;;;2.05;;
77701;SDS011;66868;42.708;23.404;2023-04-25T00:34:01;2.08;;;2.08;;
77701;SDS011;66868;42.708;23.404;2023-04-25T00:36:26;2.40;;;2.30;;
77701;SDS011;66868;42.708;23.404;2023-04-25T00:38:52;4.07;;;2.20;;
77701;SDS011;66868;42.708;23.404;2023-04-25T00:41:19;2.45;;;2.35;;
77701;SDS011;66868;42.708;23.404;2023-04-25T00:43:45;2.42;;;2.33;;
77701;SDS011;66868;42.708;23.404;2023-04-25T00:46:12;2.40;;;2.30;;
77701;SDS011;66868;42.708;23.404;2023-04-25T00:48:38;1.85;;;1.85;;
77701;SDS011;66868;42.708;23.404;2023-04-25T00:51:03;1.95;;;1.95;;
77701;SDS011;66868;42.708;23.404;2023-04-25T00:53:28;2.40;;;2.30;;
77701;SDS011;66868;42.708;23.404;2023-04-25T00:55:57;2.30;;;2.22;;
77701;SDS011;66868;42.708;23.404;2023-04-25T00:58:23;2.63;;;2.53;;
77701;SDS011;66868;42.708;23.404;2023-04-25T01:00:49;2.50;;;2.30;;
77701;SDS011;66868;42.708;23.404;2023-04-25T01:03:17;2.50;;;2.40;;
77701;SDS011;66868;42.708;23.404;2023-04-25T01:05:45;2.53;;;2.42;;
77701;SDS011;66868;42.708;23.404;2023-04-25T01:08:12;3.20;;;3.00;;
77701;SDS011;66868;42.708;23.404;2023-04-25T01:10:38;3.90;;;3.00;;
77701;SDS011;66868;42.708;23.404;2023-04-25T01:13:04;2.80;;;2.70;;
77701;SDS011;66868;42.708;23.404;2023-04-25T01:15:31;8.45;;;3.25;;
77701;SDS011;66868;42.708;23.404;2023-04-25T01:17:57;3.38;;;3.28;;
77701;SDS011;66868;42.708;23.404;2023-04-25T01:20:23;4.40;;;3.20;;
77701;SDS011;66868;42.708;23.404;2023-04-25T01:22:52;4.13;;;3.30;;
77701;SDS011;66868;42.708;23.404;2023-04-25T01:25:20;4.63;;;3.72;;
77701;SDS011;66868;42.708;23.404;2023-04-25T01:27:46;3.92;;;3.70;;
77701;SDS011;66868;42.708;23.404;2023-04-25T01:30:12;3.83;;;3.47;;
77701;SDS011;66868;42.708;23.404;2023-04-25T01:32:38;3.53;;;3.30;;
77701;SDS011;66868;42.708;23.404;2023-04-25T01:35:05;11.52;;;3.10;;
77701;SDS011;66868;42.708;23.404;2023-04-25T01:37:35;3.33;;;3.08;;
77701;SDS011;66868;42.708;23.404;2023-04-25T01:40:04;4.65;;;2.90;;
77701;SDS011;66868;42.708;23.404;2023-04-25T01:42:31;2.67;;;2.58;;
77701;SDS011;66868;42.708;23.404;2023-04-25T01:44:56;3.05;;;2.65;;
77701;SDS011;66868;42.708;23.404;2023-04-25T01:47:22;2.28;;;2.17;;
77701;SDS011;66868;42.708;23.404;2023-04-25T01:49:48;2.80;;;2.70;;
77701;SDS011;66868;42.708;23.404;2023-04-25T01:52:13;3.05;;;2.70;;
77701;SDS011;66868;42.708;23.404;2023-04-25T01:54:38;2.40;;;2.40;;
77701;SDS011;66868;42.708;23.404;2023-04-25T01:57:08;3.90;;;2.53;;
77701;SDS011;66868;42.708;23.404;2023-04-25T01:59:34;2.80;;;2.70;;
77701;SDS011;66868;42.708;23.404;2023-04-25T02:02:00;2.70;;;2.60;;
77701;SDS011;66868;42.708;23.404;2023-04-25T02:04:28;2.40;;;2.30;;
77701;SDS011;66868;42.708;23.404;2023-04-25T02:06:54;2.58;;;2.47;;
77701;SDS011;66868;42.708;23.404;2023-04-25T02:09:19;2.17;;;2.17;;
77701;SDS011;66868;42.708;23.404;2023-04-25T02:11:45;2.70;;;2.53;;
77701;SDS011;66868;42.708;23.404;2023-04-25T02:14:10;3.97;;;2.80;;
77701;SDS011;66868;42.708;23.404;2023-04-25T02:16:36;3.03;;;2.75;;
77701;SDS011;66868;42.708;23.404;2023-04-25T02:19:02;3.00;;;2.80;;
77701;SDS011;66868;42.708;23.404;2023-04-25T02:21:27;2.95;;;2.85;;
77701;SDS011;66868;42.708;23.404;2023-04-25T02:23:53;3.60;;;3.45;;
77701;SDS011;66868;42.708;23.404;2023-04-25T02:26:18;3.33;;;3.22;;
77701;SDS011;66868;42.708;23.404;2023-04-25T02:28:44;3.33;;;3.22;;
77701;SDS011;66868;42.708;23.404;2023-04-25T02:31:10;3.28;;;3.17;;
77701;SDS011;66868;42.708;23.404;2023-04-25T02:33:35;3.75;;;3.42;;
77701;SDS011;66868;42.708;23.404;2023-04-25T02:36:00;8.07;;;3.30;;
77701;SDS011;66868;42.708;23.404;2023-04-25T02:38:26;3.95;;;3.75;;
77701;SDS011;66868;42.708;23.404;2023-04-25T02:40:51;3.97;;;3.78;;
77701;SDS011;66868;42.708;23.404;2023-04-25T02:43:16;4.10;;;3.90;;
77701;SDS011;66868;42.708;23.404;2023-04-25T02:45:42;3.38;;;3.28;;
77701;SDS011;66868;42.708;23.404;2023-04-25T02:48:07;4.35;;;4.15;;
77701;SDS011;66868;42.708;23.404;2023-04-25T02:50:32;4.15;;;3.17;;
77701;SDS011;66868;42.708;23.404;2023-04-25T02:52:58;4.03;;;3.72;;
77701;SDS011;66868;42.708;23.404;2023-04-25T02:55:23;6.68;;;3.70;;
77701;SDS011;66868;42.708;23.404;2023-04-25T02:57:48;5.22;;;4.70;;
77701;SDS011;66868;42.708;23.404;2023-04-25T03:00:14;3.58;;;3.38;;
77701;SDS011;66868;42.708;23.404;2023-04-25T03:02:39;4.57;;;4.15;;
77701;SDS011;66868;42.708;23.404;2023-04-25T03:05:05;4.20;;;3.75;;
77701;SDS011;66868;42.708;23.404;2023-04-25T03:07:30;5.53;;;3.80;;
77701;SDS011;66868;42.708;23.404;2023-04-25T03:09:56;4.25;;;4.05;;
77701;SDS011;66868;42.708;23.404;2023-04-25T03:12:21;8.25;;;4.50;;
77701;SDS011;66868;42.708;23.404;2023-04-25T03:14:47;3.83;;;3.72;;
77701;SDS011;66868;42.708;23.404;2023-04-25T03:17:12;4.15;;;3.95;;
77701;SDS011;66868;42.708;23.404;2023-04-25T03:19:38;5.63;;;5.32;;
77701;SDS011;66868;42.708;23.404;2023-04-25T03:22:03;5.60;;;5.10;;
77701;SDS011;66868;42.708;23.404;2023-04-25T03:24:28;4.28;;;4.00;;
77701;SDS011;66868;42.708;23.404;2023-04-25T03:26:54;4.97;;;4.53;;
77701;SDS011;66868;42.708;23.404;2023-04-25T03:29:19;4.88;;;4.47;;
77701;SDS011;66868;42.708;23.404;2023-04-25T03:31:49;6.63;;;5.32;;
77701;SDS011;66868;42.708;23.404;2023-04-25T03:34:14;5.68;;;5.28;;
77701;SDS011;66868;42.708;23.404;2023-04-25T03:36:40;7.20;;;5.95;;
77701;SDS011;66868;42.708;23.404;2023-04-25T03:39:05;5.43;;;5.10;;
77701;SDS011;66868;42.708;23.404;2023-04-25T03:41:31;5.50;;;5.18;;
77701;SDS011;66868;42.708;23.404;2023-04-25T03:43:56;5.70;;;5.22;;
77701;SDS011;66868;42.708;23.404;2023-04-25T03:46:22;6.60;;;6.10;;
77701;SDS011;66868;42.708;23.404;2023-04-25T03:48:47;8.20;;;7.40;;
77701;SDS011;66868;42.708;23.404;2023-04-25T03:51:12;9.90;;;7.30;;
77701;SDS011;66868;42.708;23.404;2023-04-25T03:53:38;8.15;;;7.35;;
77701;SDS011;66868;42.708;23.404;2023-04-25T03:56:03;8.30;;;7.47;;
77701;SDS011;66868;42.708;23.404;2023-04-25T03:58:29;7.85;;;7.00;;
77701;SDS011;66868;42.708;23.404;2023-04-25T04:00:54;9.00;;;8.27;;
77701;SDS011;66868;42.708;23.404;2023-04-25T04:03:20;15.98;;;10.50;;
77701;SDS011;66868;42.708;23.404;2023-04-25T04:05:45;10.98;;;9.88;;
77701;SDS011;66868;42.708;23.404;2023-04-25T04:08:11;12.25;;;9.63;;
77701;SDS011;66868;42.708;23.404;2023-04-25T04:10:37;11.60;;;10.52;;
77701;SDS011;66868;42.708;23.404;2023-04-25T04:13:02;13.50;;;11.38;;
77701;SDS011;66868;42.708;23.404;2023-04-25T04:15:27;14.63;;;13.15;;
77701;SDS011;66868;42.708;23.404;2023-04-25T04:17:53;14.57;;;12.07;;
77701;SDS011;66868;42.708;23.404;2023-04-25T04:20:19;15.98;;;13.50;;
77701;SDS011;66868;42.708;23.404;2023-04-25T04:22:45;15.27;;;12.10;;
77701;SDS011;66868;42.708;23.404;2023-04-25T04:25:10;12.93;;;10.60;;
77701;SDS011;66868;42.708;23.404;2023-04-25T04:27:36;10.13;;;9.23;;
77701;SDS011;66868;42.708;23.404;2023-04-25T04:30:02;9.73;;;8.80;;
77701;SDS011;66868;42.708;23.404;2023-04-25T04:32:28;8.85;;;8.02;;
77701;SDS011;66868;42.708;23.404;2023-04-25T04:34:55;8.85;;;7.65;;
77701;SDS011;66868;42.708;23.404;2023-04-25T04:37:21;7.78;;;7.07;;
77701;SDS011;66868;42.708;23.404;2023-04-25T04:39:47;7.97;;;7.38;;
77701;SDS011;66868;42.708;23.404;2023-04-25T04:42:12;7.90;;;7.10;;
77701;SDS011;66868;42.708;23.404;2023-04-25T04:44:38;16.38;;;10.25;;
77701;SDS011;66868;42.708;23.404;2023-04-25T04:47:04;9.02;;;8.25;;
77701;SDS011;66868;42.708;23.404;2023-04-25T04:49:31;11.25;;;7.63;;
77701;SDS011;66868;42.708;23.404;2023-04-25T04:51:57;8.00;;;7.40;;
77701;SDS011;66868;42.708;23.404;2023-04-25T04:54:22;7.18;;;6.50;;
77701;SDS011;66868;42.708;23.404;2023-04-25T04:56:48;7.10;;;6.60;;
77701;SDS011;66868;42.708;23.404;2023-04-25T04:59:13;7.25;;;6.63;;
77701;SDS011;66868;42.708;23.404;2023-04-25T05:01:38;7.22;;;6.63;;
77701;SDS011;66868;42.708;23.404;2023-04-25T05:04:04;6.97;;;5.75;;
77701;SDS011;66868;42.708;23.404;2023-04-25T05:06:30;5.78;;;5.47;;
77701;SDS011;66868;42.708;23.404;2023-04-25T05:08:56;5.05;;;4.65;;
77701;SDS011;66868;42.708;23.404;2023-04-25T05:11:22;5.38;;;4.78;;
77701;SDS011;66868;42.708;23.404;2023-04-25T05:13:49;4.32;;;4.10;;
77701;SDS011;66868;42.708;23.404;2023-04-25T05:16:16;3.72;;;3.50;;
77701;SDS011;66868;42.708;23.404;2023-04-25T05:18:41;3.42;;;3.33;;
77701;SDS011;66868;42.708;23.404;2023-04-25T05:21:07;3.42;;;3.30;;
77701;SDS011;66868;42.708;23.404;2023-04-25T05:23:32;3.88;;;3.72;;
77701;SDS011;66868;42.708;23.404;2023-04-25T05:25:58;3.75;;;3.55;;
77701;SDS011;66868;42.708;23.404;2023-04-25T05:28:24;4.00;;;3.53;;
77701;SDS011;66868;42.708;23.404;2023-04-25T05:30:49;3.78;;;3.47;;
77701;SDS011;66868;42.708;23.404;2023-04-25T05:33:15;4.05;;;3.85;;
77701;SDS011;66868;42.708;23.404;2023-04-25T05:35:40;4.20;;;3.92;;
77701;SDS011;66868;42.708;23.404;2023-04-25T05:38:06;4.30;;;4.10;;
77701;SDS011;66868;42.708;23.404;2023-04-25T05:40:31;4.80;;;4.50;;
77701;SDS011;66868;42.708;23.404;2023-04-25T05:42:57;8.18;;;4.70;;
77701;SDS011;66868;42.708;23.404;2023-04-25T05:45:22;5.22;;;4.82;;
77701;SDS011;66868;42.708;23.404;2023-04-25T05:47:48;5.53;;;4.95;;
77701;SDS011;66868;42.708;23.404;2023-04-25T05:50:13;4.22;;;3.92;;
77701;SDS011;66868;42.708;23.404;2023-04-25T05:52:39;4.53;;;4.10;;
77701;SDS011;66868;42.708;23.404;2023-04-25T05:55:04;4.15;;;3.83;;
77701;SDS011;66868;42.708;23.404;2023-04-25T05:57:30;4.28;;;3.90;;
77701;SDS011;66868;42.708;23.404;2023-04-25T05:59:56;4.45;;;3.55;;
77701;SDS011;66868;42.708;23.404;2023-04-25T06:02:21;4.07;;;3.67;;
77701;SDS011;66868;42.708;23.404;2023-04-25T06:04:50;3.80;;;3.45;;
77701;SDS011;66868;42.708;23.404;2023-04-25T06:07:16;5.60;;;4.72;;
77701;SDS011;66868;42.708;23.404;2023-04-25T06:09:42;4.38;;;4.07;;
77701;SDS011;66868;42.708;23.404;2023-04-25T06:12:08;4.20;;;4.00;;
77701;SDS011;66868;42.708;23.404;2023-04-25T06:14:33;6.35;;;4.40;;
77701;SDS011;66868;42.708;23.404;2023-04-25T06:16:59;5.50;;;4.15;;
77701;SDS011;66868;42.708;23.404;2023-04-25T06:19:24;5.97;;;4.43;;
77701;SDS011;66868;42.708;23.404;2023-04-25T06:21:50;6.85;;;4.25;;
77701;SDS011;66868;42.708;23.404;2023-04-25T06:24:18;5.85;;;4.80;;
77701;SDS011;66868;42.708;23.404;2023-04-25T06:26:43;7.65;;;6.97;;
77701;SDS011;66868;42.708;23.404;2023-04-25T06:29:09;8.77;;;7.97;;
77701;SDS011;66868;42.708;23.404;2023-04-25T06:31:34;7.78;;;7.13;;
77701;SDS011;66868;42.708;23.404;2023-04-25T06:34:00;7.47;;;6.88;;
77701;SDS011;66868;42.708;23.404;2023-04-25T06:36:25;6.80;;;6.25;;
77701;SDS011;66868;42.708;23.404;2023-04-25T06:38:52;6.18;;;5.78;;
77701;SDS011;66868;42.708;23.404;2023-04-25T06:41:18;7.88;;;5.70;;
77701;SDS011;66868;42.708;23.404;2023-04-25T06:43:43;5.47;;;5.07;;
77701;SDS011;66868;42.708;23.404;2023-04-25T06:46:09;5.07;;;4.72;;
77701;SDS011;66868;42.708;23.404;2023-04-25T06:48:35;5.93;;;4.30;;
77701;SDS011;66868;42.708;23.404;2023-04-25T06:51:00;6.55;;;4.70;;
77701;SDS011;66868;42.708;23.404;2023-04-25T06:53:25;5.13;;;4.35;;
77701;SDS011;66868;42.708;23.404;2023-04-25T06:55:51;4.68;;;4.28;;
77701;SDS011;66868;42.708;23.404;2023-04-25T06:58:16;5.30;;;4.75;;
77701;SDS011;66868;42.708;23.404;2023-04-25T07:00:42;5.05;;;4.75;;
77701;SDS011;66868;42.708;23.404;2023-04-25T07:03:07;6.65;;;6.05;;
77701;SDS011;66868;42.708;23.404;2023-04-25T07:05:33;6.75;;;5.95;;
77701;SDS011;66868;42.708;23.404;2023-04-25T07:07:58;7.80;;;6.88;;
77701;SDS011;66868;42.708;23.404;2023-04-25T07:10:24;6.93;;;6.22;;
77701;SDS011;66868;42.708;23.404;2023-04-25T07:12:50;6.28;;;5.78;;
77701;SDS011;66868;42.708;23.404;2023-04-25T07:15:15;6.35;;;5.80;;
77701;SDS011;66868;42.708;23.404;2023-04-25T07:17:40;7.10;;;6.18;;
77701;SDS011;66868;42.708;23.404;2023-04-25T07:20:06;8.98;;;6.32;;
77701;SDS011;66868;42.708;23.404;2023-04-25T07:22:34;7.03;;;6.13;;
77701;SDS011;66868;42.708;23.404;2023-04-25T07:24:59;7.18;;;6.15;;
77701;SDS011;66868;42.708;23.404;2023-04-25T07:27:24;7.05;;;5.75;;
77701;SDS011;66868;42.708;23.404;2023-04-25T07:29:50;8.55;;;6.00;;
77701;SDS011;66868;42.708;23.404;2023-04-25T07:32:15;5.78;;;5.20;;
77701;SDS011;66868;42.708;23.404;2023-04-25T07:34:41;11.43;;;5.47;;
77701;SDS011;66868;42.708;23.404;2023-04-25T07:37:06;6.25;;;5.57;;
77701;SDS011;66868;42.708;23.404;2023-04-25T07:39:33;6.13;;;5.53;;
77701;SDS011;66868;42.708;23.404;2023-04-25T07:41:58;9.35;;;5.32;;
77701;SDS011;66868;42.708;23.404;2023-04-25T07:44:24;5.75;;;5.30;;
77701;SDS011;66868;42.708;23.404;2023-04-25T07:46:50;7.13;;;5.80;;
77701;SDS011;66868;42.708;23.404;2023-04-25T07:49:16;7.70;;;5.35;;
77701;SDS011;66868;42.708;23.404;2023-04-25T07:51:41;6.57;;;5.70;;
77701;SDS011;66868;42.708;23.404;2023-04-25T07:54:08;8.32;;;5.57;;
77701;SDS011;66868;42.708;23.404;2023-04-25T07:56:34;5.60;;;4.93;;
77701;SDS011;66868;42.708;23.404;2023-04-25T07:59:00;5.40;;;5.00;;
77701;SDS011;66868;42.708;23.404;2023-04-25T08:01:26;6.55;;;4.78;;
77701;SDS011;66868;42.708;23.404;2023-04-25T08:03:52;5.45;;;5.10;;
77701;SDS011;66868;42.708;23.404;2023-04-25T08:06:17;6.22;;;5.13;;
77701;SDS011;66868;42.708;23.404;2023-04-25T08:08:43;8.23;;;5.57;;
77701;SDS011;66868;42.708;23.404;2023-04-25T08:11:08;7.18;;;5.35;;
77701;SDS011;66868;42.708;23.404;2023-04-25T08:13:34;8.00;;;4.65;;
77701;SDS011;66868;42.708;23.404;2023-04-25T08:15:59;7.25;;;5.38;;
77701;SDS011;66868;42.708;23.404;2023-04-25T08:18:24;5.22;;;4.82;;
77701;SDS011;66868;42.708;23.404;2023-04-25T08:20:50;5.15;;;4.65;;
77701;SDS011;66868;42.708;23.404;2023-04-25T08:23:15;5.00;;;4.60;;
77701;SDS011;66868;42.708;23.404;2023-04-25T08:25:40;5.80;;;4.85;;
77701;SDS011;66868;42.708;23.404;2023-04-25T08:28:06;7.47;;;5.85;;
77701;SDS011;66868;42.708;23.404;2023-04-25T08:30:31;6.15;;;5.55;;
77701;SDS011;66868;42.708;23.404;2023-04-25T08:32:57;5.10;;;4.80;;
77701;SDS011;66868;42.708;23.404;2023-04-25T08:35:22;4.88;;;4.47;;
77701;SDS011;66868;42.708;23.404;2023-04-25T08:37:48;4.90;;;4.60;;
77701;SDS011;66868;42.708;23.404;2023-04-25T08:40:14;8.10;;;4.70;;
77701;SDS011;66868;42.708;23.404;2023-04-25T08:42:41;4.35;;;4.03;;
77701;SDS011;66868;42.708;23.404;2023-04-25T08:45:08;5.63;;;4.60;;
77701;SDS011;66868;42.708;23.404;2023-04-25T08:47:34;6.30;;;5.80;;
77701;SDS011;66868;42.708;23.404;2023-04-25T08:50:03;7.30;;;6.80;;
77701;SDS011;66868;42.708;23.404;2023-04-25T08:52:32;12.50;;;8.82;;
77701;SDS011;66868;42.708;23.404;2023-04-25T08:55:02;6.70;;;5.90;;
77701;SDS011;66868;42.708;23.404;2023-04-25T08:57:28;5.90;;;5.45;;
77701;SDS011;66868;42.708;23.404;2023-04-25T08:59:55;11.98;;;5.22;;
77701;SDS011;66868;42.708;23.404;2023-04-25T09:02:23;7.22;;;5.65;;
77701;SDS011;66868;42.708;23.404;2023-04-25T09:04:49;4.55;;;4.10;;
77701;SDS011;66868;42.708;23.404;2023-04-25T09:07:15;4.40;;;4.10;;
77701;SDS011;66868;42.708;23.404;2023-04-25T09:09:43;4.57;;;4.07;;
77701;SDS011;66868;42.708;23.404;2023-04-25T09:12:09;4.53;;;4.18;;
77701;SDS011;66868;42.708;23.404;2023-04-25T09:14:35;3.90;;;3.70;;
77701;SDS011;66868;42.708;23.404;2023-04-25T09:17:01;3.20;;;3.10;;
77701;SDS011;66868;42.708;23.404;2023-04-25T09:19:31;3.08;;;2.97;;
77701;SDS011;66868;42.708;23.404;2023-04-25T09:21:59;3.30;;;3.10;;
77701;SDS011;66868;42.708;23.404;2023-04-25T09:27:05;5.97;;;3.70;;
77701;SDS011;66868;42.708;23.404;2023-04-25T09:29:32;3.70;;;3.47;;
77701;SDS011;66868;42.708;23.404;2023-04-25T09:32:20;4.10;;;3.80;;
77701;SDS011;66868;42.708;23.404;2023-04-25T09:34:50;2.83;;;2.70;;
77701;SDS011;66868;42.708;23.404;2023-04-25T09:37:26;2.67;;;2.55;;
77701;SDS011;66868;42.708;23.404;2023-04-25T09:39:56;2.78;;;2.67;;
77701;SDS011;66868;42.708;23.404;2023-04-25T09:42:30;4.00;;;3.10;;
77701;SDS011;66868;42.708;23.404;2023-04-25T09:44:57;3.78;;;2.85;;
77701;SDS011;66868;42.708;23.404;2023-04-25T09:47:24;5.13;;;2.60;;
77701;SDS011;66868;42.708;23.404;2023-04-25T09:49:51;2.50;;;2.40;;
77701;SDS011;66868;42.708;23.404;2023-04-25T09:52:21;3.10;;;2.90;;
77701;SDS011;66868;42.708;23.404;2023-04-25T09:54:48;3.13;;;2.92;;
77701;SDS011;66868;42.708;23.404;2023-04-25T09:57:16;2.15;;;2.05;;
77701;SDS011;66868;42.708;23.404;2023-04-25T09:59:43;2.40;;;2.30;;
77701;SDS011;66868;42.708;23.404;2023-04-25T10:02:11;2.50;;;2.33;;
77701;SDS011;66868;42.708;23.404;2023-04-25T10:04:37;2.83;;;2.70;;
77701;SDS011;66868;42.708;23.404;2023-04-25T10:07:05;2.83;;;2.63;;
77701;SDS011;66868;42.708;23.404;2023-04-25T10:09:32;2.88;;;2.55;;
77701;SDS011;66868;42.708;23.404;2023-04-25T10:12:01;5.13;;;2.35;;
77701;SDS011;66868;42.708;23.404;2023-04-25T10:14:31;2.22;;;2.08;;
77701;SDS011;66868;42.708;23.404;2023-04-25T10:16:59;2.20;;;2.08;;
77701;SDS011;66868;42.708;23.404;2023-04-25T10:19:26;2.47;;;2.13;;
77701;SDS011;66868;42.708;23.404;2023-04-25T10:24:22;1.70;;;1.60;;
77701;SDS011;66868;42.708;23.404;2023-04-25T10:26:48;4.32;;;2.05;;
77701;SDS011;66868;42.708;23.404;2023-04-25T10:29:21;2.08;;;1.98;;
77701;SDS011;66868;42.708;23.404;2023-04-25T10:31:48;1.42;;;1.42;;
77701;SDS011;66868;42.708;23.404;2023-04-25T10:34:15;1.40;;;1.40;;
77701;SDS011;66868;42.708;23.404;2023-04-25T10:36:41;2.50;;;1.42;;
77701;SDS011;66868;42.708;23.404;2023-04-25T10:39:07;2.47;;;1.20;;
77701;SDS011;66868;42.708;23.404;2023-04-25T10:41:46;2.00;;;1.23;;
77701;SDS011;66868;42.708;23.404;2023-04-25T10:44:15;3.13;;;0.95;;
77701;SDS011;66868;42.708;23.404;2023-04-25T10:46:41;4.53;;;1.42;;
77701;SDS011;66868;42.708;23.404;2023-04-25T10:49:06;7.72;;;2.58;;
77701;SDS011;66868;42.708;23.404;2023-04-25T10:51:33;1.05;;;1.02;;
77701;SDS011;66868;42.708;23.404;2023-04-25T10:54:04;5.10;;;2.47;;
77701;SDS011;66868;42.708;23.404;2023-04-25T10:56:31;1.48;;;1.27;;
77701;SDS011;66868;42.708;23.404;2023-04-25T11:01:41;1.85;;;1.10;;
77701;SDS011;66868;42.708;23.404;2023-04-25T11:09:33;1.55;;;1.17;;
77701;SDS011;66868;42.708;23.404;2023-04-25T11:12:03;1.17;;;1.05;;
77701;SDS011;66868;42.708;23.404;2023-04-25T11:14:30;0.73;;;0.73;;
77701;SDS011;66868;42.708;23.404;2023-04-25T11:16:55;0.80;;;0.80;;
77701;SDS011;66868;42.708;23.404;2023-04-25T11:19:24;2.03;;;0.90;;
77701;SDS011;66868;42.708;23.404;2023-04-25T11:22:00;1.67;;;0.95;;
77701;SDS011;66868;42.708;23.404;2023-04-25T11:24:27;0.80;;;0.80;;
77701;SDS011;66868;42.708;23.404;2023-04-25T11:26:53;1.05;;;1.05;;
77701;SDS011;66868;42.708;23.404;2023-04-25T11:29:22;0.70;;;0.70;;
77701;SDS011;66868;42.708;23.404;2023-04-25T11:31:54;1.05;;;0.70;;
77701;SDS011;66868;42.708;23.404;2023-04-25T11:34:22;0.50;;;0.50;;
77701;SDS011;66868;42.708;23.404;2023-04-25T11:36:49;1.00;;;1.00;;
77701;SDS011;66868;42.708;23.404;2023-04-25T11:39:15;0.80;;;0.57;;
77701;SDS011;66868;42.708;23.404;2023-04-25T11:41:41;0.70;;;0.70;;
77701;SDS011;66868;42.708;23.404;2023-04-25T11:44:06;1.20;;;0.70;;
77701;SDS011;66868;42.708;23.404;2023-04-25T11:46:35;1.85;;;0.60;;
77701;SDS011;66868;42.708;23.404;2023-04-25T11:49:00;0.85;;;0.63;;
77701;SDS011;66868;42.708;23.404;2023-04-25T11:51:27;4.72;;;1.02;;
77701;SDS011;66868;42.708;23.404;2023-04-25T11:53:52;0.70;;;0.70;;
77701;SDS011;66868;42.708;23.404;2023-04-25T11:56:17;1.13;;;1.13;;
77701;SDS011;66868;42.708;23.404;2023-04-25T12:01:31;0.70;;;0.70;;
77701;SDS011;66868;42.708;23.404;2023-04-25T12:06:57;2.25;;;0.90;;
77701;SDS011;66868;42.708;23.404;2023-04-25T12:09:32;1.25;;;1.15;;
77701;SDS011;66868;42.708;23.404;2023-04-25T12:11:59;1.55;;;0.68;;
77701;SDS011;66868;42.708;23.404;2023-04-25T12:14:29;0.63;;;0.63;;
77701;SDS011;66868;42.708;23.404;2023-04-25T12:17:00;1.02;;;0.90;;
77701;SDS011;66868;42.708;23.404;2023-04-25T12:19:33;1.48;;;0.77;;
77701;SDS011;66868;42.708;23.404;2023-04-25T12:22:18;0.45;;;0.45;;
77701;SDS011;66868;42.708;23.404;2023-04-25T12:24:45;0.35;;;0.35;;
77701;SDS011;66868;42.708;23.404;2023-04-25T12:27:13;1.23;;;0.40;;
77701;SDS011;66868;42.708;23.404;2023-04-25T12:30:04;0.50;;;0.50;;
77701;SDS011;66868;42.708;23.404;2023-04-25T12:32:58;0.85;;;0.38;;
77701;SDS011;66868;42.708;23.404;2023-04-25T12:35:24;0.47;;;0.47;;
77701;SDS011;66868;42.708;23.404;2023-04-25T12:37:49;2.15;;;0.90;;
77701;SDS011;66868;42.708;23.404;2023-04-25T12:40:14;1.80;;;0.80;;
77701;SDS011;66868;42.708;23.404;2023-04-25T12:42:40;5.13;;;1.20;;
77701;SDS011;66868;42.708;23.404;2023-04-25T12:45:05;1.88;;;1.20;;
77701;SDS011;66868;42.708;23.404;2023-04-25T12:47:31;2.83;;;2.47;;
77701;SDS011;66868;42.708;23.404;2023-04-25T12:50:00;6.82;;;1.40;;
77701;SDS011;66868;42.708;23.404;2023-04-25T12:52:25;4.88;;;1.13;;
77701;SDS011;66868;42.708;23.404;2023-04-25T12:54:50;1.95;;;1.17;;
77701;SDS011;66868;42.708;23.404;2023-04-25T12:57:16;4.15;;;0.90;;
77701;SDS011;66868;42.708;23.404;2023-04-25T12:59:41;3.13;;;1.30;;
77701;SDS011;66868;42.708;23.404;2023-04-25T13:02:06;2.05;;;0.63;;
77701;SDS011;66868;42.708;23.404;2023-04-25T13:04:32;0.88;;;0.88;;
77701;SDS011;66868;42.708;23.404;2023-04-25T13:06:57;2.10;;;0.90;;
77701;SDS011;66868;42.708;23.404;2023-04-25T13:09:23;1.65;;;1.55;;
77701;SDS011;66868;42.708;23.404;2023-04-25T13:11:48;5.55;;;2.45;;
77701;SDS011;66868;42.708;23.404;2023-04-25T13:14:13;1.15;;;1.15;;
77701;SDS011;66868;42.708;23.404;2023-04-25T13:16:40;1.95;;;1.40;;
77701;SDS011;66868;42.708;23.404;2023-04-25T13:19:08;4.03;;;1.40;;
77701;SDS011;66868;42.708;23.404;2023-04-25T13:21:38;3.45;;;2.00;;
77701;SDS011;66868;42.708;23.404;2023-04-25T13:24:04;2.30;;;2.15;;
77701;SDS011;66868;42.708;23.404;2023-04-25T13:26:29;2.00;;;1.90;;
77701;SDS011;66868;42.708;23.404;2023-04-25T13:28:55;2.58;;;2.25;;
77701;SDS011;66868;42.708;23.404;2023-04-25T13:31:21;5.47;;;2.28;;
77701;SDS011;66868;42.708;23.404;2023-04-25T13:33:46;4.63;;;2.30;;
77701;SDS011;66868;42.708;23.404;2023-04-25T13:36:12;13.80;;;9.80;;
77701;SDS011;66868;42.708;23.404;2023-04-25T13:38:37;17.35;;;15.52;;
77701;SDS011;66868;42.708;23.404;2023-04-25T13:41:04;21.42;;;19.08;;
77701;SDS011;66868;42.708;23.404;2023-04-25T13:43:31;6.68;;;6.13;;
77701;SDS011;66868;42.708;23.404;2023-04-25T13:45:57;5.88;;;5.22;;
77701;SDS011;66868;42.708;23.404;2023-04-25T13:48:23;4.75;;;3.80;;
77701;SDS011;66868;42.708;23.404;2023-04-25T13:50:49;8.70;;;2.83;;
77701;SDS011;66868;42.708;23.404;2023-04-25T13:53:15;6.05;;;3.40;;
77701;SDS011;66868;42.708;23.404;2023-04-25T13:55:41;4.38;;;2.95;;
77701;SDS011;66868;42.708;23.404;2023-04-25T13:58:06;2.95;;;2.65;;
77701;SDS011;66868;42.708;23.404;2023-04-25T14:00:35;8.15;;;2.97;;
77701;SDS011;66868;42.708;23.404;2023-04-25T14:03:03;4.57;;;2.80;;
77701;SDS011;66868;42.708;23.404;2023-04-25T14:05:31;3.53;;;2.40;;
77701;SDS011;66868;42.708;23.404;2023-04-25T14:07:57;5.95;;;3.17;;
77701;SDS011;66868;42.708;23.404;2023-04-25T14:10:23;3.10;;;2.83;;
77701;SDS011;66868;42.708;23.404;2023-04-25T14:12:49;4.63;;;3.03;;
77701;SDS011;66868;42.708;23.404;2023-04-25T14:15:14;3.38;;;2.72;;
77701;SDS011;66868;42.708;23.404;2023-04-25T14:17:40;3.20;;;2.05;;
77701;SDS011;66868;42.708;23.404;2023-04-25T14:20:05;4.57;;;2.60;;
77701;SDS011;66868;42.708;23.404;2023-04-25T14:22:32;4.75;;;2.28;;
77701;SDS011;66868;42.708;23.404;2023-04-25T14:24:58;1.98;;;1.90;;
77701;SDS011;66868;42.708;23.404;2023-04-25T14:27:23;1.40;;;1.40;;
77701;SDS011;66868;42.708;23.404;2023-04-25T14:29:48;1.23;;;1.13;;
77701;SDS011;66868;42.708;23.404;2023-04-25T14:32:14;1.20;;;0.90;;
77701;SDS011;66868;42.708;23.404;2023-04-25T14:34:40;2.25;;;1.50;;
77701;SDS011;66868;42.708;23.404;2023-04-25T14:37:05;2.58;;;1.52;;
77701;SDS011;66868;42.708;23.404;2023-04-25T14:39:31;1.73;;;1.38;;
77701;SDS011;66868;42.708;23.404;2023-04-25T14:41:56;1.42;;;1.27;;
77701;SDS011;66868;42.708;23.404;2023-04-25T14:44:22;1.67;;;1.50;;
77701;SDS011;66868;42.708;23.404;2023-04-25T14:46:48;1.10;;;1.00;;
77701;SDS011;66868;42.708;23.404;2023-04-25T14:49:16;1.00;;;1.00;;